NKS121 KRDU-KACY
Flight info
| Callsign | NKS121 |
|---|---|
| Flight time | N/A |
| Altitude | 31000 |
| Route | HURIC4 FEBEL GUILD SAWED ZJAAY RADDS SIE |
| Aircraft | A21N/M-SDE2E3FGHIRWXY/LB1 |
Departure
| Time | 2026-05-06 20:30 |
|---|---|
| Airport | Raleigh-Durham International Airport (KRDU) |
Arrival
| Time | N/A |
|---|---|
| Airport | Atlantic City International Airport (KACY) |
| Time | Latitude | Longitude | Altitude | Speed | Heading |
|---|---|---|---|---|---|
| 2026-05-06 20:16 | 35.87637 | -78.79554 | 418 ft | 0 kts | 123° |
| 2026-05-06 20:20 | 35.87644 | -78.79568 | 415 ft | 3 kts | 123° |
| 2026-05-06 20:20 | 35.87654 | -78.79585 | 415 ft | 3 kts | 154° |
| 2026-05-06 20:21 | 35.87671 | -78.79586 | 417 ft | 2 kts | 214° |
| 2026-05-06 20:21 | 35.87673 | -78.79585 | 416 ft | 0 kts | 214° |
| 2026-05-06 20:25 | 35.87655 | -78.79609 | 416 ft | 18 kts | 233° |
| 2026-05-06 20:26 | 35.87563 | -78.79746 | 426 ft | 14 kts | 232° |
| 2026-05-06 20:26 | 35.87562 | -78.79805 | 425 ft | 4 kts | 334° |
| 2026-05-06 20:26 | 35.87620 | -78.79775 | 428 ft | 19 kts | 32° |
| 2026-05-06 20:26 | 35.87774 | -78.79601 | 428 ft | 42 kts | 45° |
| 2026-05-06 20:27 | 35.88014 | -78.79305 | 423 ft | 51 kts | 45° |
| 2026-05-06 20:27 | 35.88235 | -78.79028 | 430 ft | 46 kts | 45° |
| 2026-05-06 20:27 | 35.88460 | -78.78756 | 423 ft | 46 kts | 46° |
| 2026-05-06 20:27 | 35.88716 | -78.78437 | 432 ft | 58 kts | 45° |
| 2026-05-06 20:28 | 35.89000 | -78.78087 | 419 ft | 58 kts | 45° |
| 2026-05-06 20:28 | 35.89251 | -78.77780 | 423 ft | 30 kts | 37° |
| 2026-05-06 20:28 | 35.89314 | -78.77756 | 426 ft | 0 kts | 346° |
| 2026-05-06 20:28 | 35.89315 | -78.77756 | 426 ft | 1 kts | 343° |
| 2026-05-06 20:29 | 35.89336 | -78.77788 | 421 ft | 6 kts | 294° |
| 2026-05-06 20:29 | 35.89333 | -78.77849 | 428 ft | 14 kts | 251° |
| 2026-05-06 20:29 | 35.89194 | -78.78038 | 422 ft | 55 kts | 224° |
| 2026-05-06 20:29 | 35.88721 | -78.78618 | 425 ft | 138 kts | 225° |
| 2026-05-06 20:30 | 35.87899 | -78.79627 | 602 ft | 190 kts | 225° |
| 2026-05-06 20:30 | 35.85867 | -78.82126 | 2155 ft | 206 kts | 219° |
| 2026-05-06 20:30 | 35.84499 | -78.82795 | 2829 ft | 229 kts | 182° |
| 2026-05-06 20:31 | 35.82916 | -78.82214 | 3354 ft | 252 kts | 144° |
| 2026-05-06 20:31 | 35.81812 | -78.80452 | 3832 ft | 276 kts | 111° |